Time;durP1;ratioP1;P1;durP2;ratioP2;P2;SDS_P1;SDS_P2;PMS_P1;PMS_P2;Temp;Humidity;BMP_temperature;BMP_pressure;BME280_temperature;BME280_humidity;BME280_pressure;Samples;Min_cycle;Max_cycle;Signal;HPM_P1;HPM_P2
2022/01/07 00:00:50;;;;;;;16.57;8.68;;;;;;;-3.52;74.10;96928.91;1694822;84;21036;-81
2022/01/07 00:03:16;;;;;;;20.48;11.12;;;;;;;-3.57;74.23;96930.89;1691226;84;21039;-80
2022/01/07 00:05:42;;;;;;;17.20;9.03;;;;;;;-3.57;74.20;96937.23;1692992;84;21801;-81
2022/01/07 00:08:08;;;;;;;14.10;10.88;;;;;;;-3.57;74.31;96935.15;1690867;84;21087;-80
2022/01/07 00:10:33;;;;;;;13.28;9.10;;;;;;;-3.59;74.37;96942.82;1694003;84;21014;-80
2022/01/07 00:12:59;;;;;;;19.80;8.78;;;;;;;-3.63;74.54;96940.90;1691129;84;20960;-80
2022/01/07 00:15:25;;;;;;;13.75;8.38;;;;;;;-3.66;74.37;96944.87;1689041;84;21008;-80
2022/01/07 00:17:51;;;;;;;14.98;8.20;;;;;;;-3.66;74.49;96942.78;1691859;84;21034;-81
2022/01/07 00:20:16;;;;;;;14.18;8.28;;;;;;;-3.73;74.43;96942.30;1691444;84;21343;-80
2022/01/07 00:22:43;;;;;;;14.33;7.85;;;;;;;-3.79;74.50;96941.78;1692268;84;21059;-80
2022/01/07 00:25:10;;;;;;;13.13;8.68;;;;;;;-3.86;74.64;96937.48;1692202;84;20931;-81
2022/01/07 00:27:36;;;;;;;13.75;8.53;;;;;;;-3.85;74.86;96942.11;1691002;84;21086;-81
2022/01/07 00:30:02;;;;;;;13.83;7.80;;;;;;;-3.85;74.84;96942.11;1690199;84;21034;-81
2022/01/07 00:32:28;;;;;;;13.62;8.40;;;;;;;-3.87;74.90;96932.05;1690304;84;21043;-82
2022/01/07 00:34:53;;;;;;;13.72;8.00;;;;;;;-3.89;74.94;96940.64;1691385;84;21421;-80
2022/01/07 00:37:19;;;;;;;13.85;8.25;;;;;;;-3.89;75.11;96945.72;1693012;84;21055;-80
2022/01/07 00:39:45;;;;;;;10.40;7.30;;;;;;;-3.92;74.99;96945.41;1690987;84;21043;-80
2022/01/07 00:42:11;;;;;;;9.70;7.80;;;;;;;-3.92;75.06;96949.21;1694004;84;21393;-80
2022/01/07 00:44:38;;;;;;;13.43;7.75;;;;;;;-3.94;74.84;96953.55;1689458;84;20949;-80
2022/01/07 00:47:04;;;;;;;13.40;7.70;;;;;;;-3.98;74.65;96957.16;1689293;84;21051;-80
2022/01/07 00:49:30;;;;;;;11.75;7.30;;;;;;;-4.02;74.69;96952.69;1693090;84;20991;-80
2022/01/07 00:51:58;;;;;;;13.72;7.78;;;;;;;-4.04;74.82;96951.95;1692224;84;20976;-80
2022/01/07 00:54:23;;;;;;;10.78;6.95;;;;;;;-4.02;74.86;96954.41;1690374;84;21008;-80
2022/01/07 00:56:49;;;;;;;10.70;6.33;;;;;;;-4.02;74.80;96960.75;1691194;84;20986;-80
2022/01/07 00:59:15;;;;;;;12.68;7.22;;;;;;;-4.03;74.87;96956.58;1691740;84;21055;-80
2022/01/07 01:01:40;;;;;;;11.53;6.72;;;;;;;-4.03;74.93;96956.58;1690457;84;20999;-79
2022/01/07 01:04:06;;;;;;;12.73;7.40;;;;;;;-4.04;74.83;96951.13;1690084;83;20942;-80
2022/01/07 01:06:33;;;;;;;9.10;6.78;;;;;;;-4.04;74.77;96958.30;1691862;84;20931;-80
2022/01/07 01:08:59;;;;;;;10.40;6.15;;;;;;;-4.05;74.83;96961.73;1691130;84;21367;-80
2022/01/07 01:11:24;;;;;;;11.10;6.95;;;;;;;-4.05;74.71;96963.45;1690319;84;20968;-80
2022/01/07 01:13:50;;;;;;;9.05;6.00;;;;;;;-4.08;74.64;96954.25;1692935;84;21000;-80
2022/01/07 01:16:16;;;;;;;13.43;6.08;;;;;;;-4.10;74.43;96959.04;1691115;84;21406;-80
2022/01/07 01:18:42;;;;;;;6.60;5.33;;;;;;;-4.10;74.43;96957.77;1692154;84;21070;-80
2022/01/07 01:21:07;;;;;;;8.85;5.00;;;;;;;-4.11;74.36;96955.68;1690371;84;21022;-80
2022/01/07 01:23:33;;;;;;;10.40;5.87;;;;;;;-4.11;74.28;96953.59;1693027;84;21358;-80
2022/01/07 01:25:59;;;;;;;7.85;5.10;;;;;;;-4.12;74.21;96950.69;1690161;84;20984;-80
2022/01/07 01:28:24;;;;;;;8.88;5.45;;;;;;;-4.14;74.17;96943.16;1693639;84;21015;-80
2022/01/07 01:30:50;;;;;;;9.03;5.87;;;;;;;-4.15;74.18;96940.70;1691088;84;21480;-80
2022/01/07 01:33:18;;;;;;;8.45;5.20;;;;;;;-4.16;73.95;96936.52;1690412;84;20940;-80
2022/01/07 01:35:44;;;;;;;7.53;4.72;;;;;;;-4.15;74.14;96938.16;1689929;84;21030;-80
2022/01/07 01:38:09;;;;;;;7.28;5.10;;;;;;;-4.14;74.04;96938.53;1664451;84;20976;-80
2022/01/07 01:40:35;;;;;;;8.18;4.25;;;;;;;-4.16;73.97;96941.59;1692048;84;20986;-80
2022/01/07 01:43:01;;;;;;;6.85;4.67;;;;;;;-4.19;73.99;96940.48;1692006;84;21050;-80
2022/01/07 01:45:27;;;;;;;10.05;4.83;;;;;;;-4.19;74.02;96937.95;1690372;84;20988;-80
2022/01/07 01:47:55;;;;;;;6.45;4.25;;;;;;;-4.19;74.02;96941.76;1690166;84;20975;-80
2022/01/07 01:50:21;;;;;;;5.58;4.45;;;;;;;-4.20;73.97;96942.20;1630436;86;21054;-80
2022/01/07 01:52:53;;;;;;;5.85;4.03;;;;;;;-4.22;74.09;96933.04;1652096;86;21003;-80
2022/01/07 01:55:19;;;;;;;;;;;;;;;-4.24;74.11;96931.81;1655692;86;21019;-81
2022/01/07 01:57:45;;;;;;;4.92;3.90;;;;;;;-4.25;74.08;96933.53;1652598;86;20093;-80
2022/01/07 02:00:11;;;;;;;5.30;3.60;;;;;;;-4.30;74.07;96931.69;1651092;86;21076;-80
2022/01/07 02:02:37;;;;;;;4.33;3.72;;;;;;;-4.32;74.08;96927.59;1630520;85;21016;-80
2022/01/07 02:05:03;;;;;;;5.92;3.90;;;;;;;-4.33;74.12;96927.23;1635945;87;20986;-80
2022/01/07 02:07:31;;;;;;;4.47;4.08;;;;;;;-4.34;74.17;96923.05;1629431;87;21101;-80
2022/01/07 02:09:57;;;;;;;6.62;4.30;;;;;;;-4.35;74.08;96918.88;1690187;84;21074;-80
2022/01/07 02:12:22;;;;;;;4.30;3.90;;;;;;;-4.37;74.09;96923.21;1692199;84;21042;-80
2022/01/07 02:14:53;;;;;;;4.87;3.83;;;;;;;-4.38;74.26;96928.73;1665400;84;21313;-80
2022/01/07 02:17:19;;;;;;;3.92;3.42;;;;;;;-4.37;73.84;96927.83;1689208;84;20988;-80
2022/01/07 02:19:44;;;;;;;6.17;3.87;;;;;;;-4.36;74.24;96921.86;1693273;84;21017;-80
2022/01/07 02:22:12;;;;;;;4.75;3.62;;;;;;;-4.33;74.16;96917.89;1693770;84;20991;-80
2022/01/07 02:24:38;;;;;;;5.92;3.85;;;;;;;-4.34;74.25;96920.06;1690008;84;21048;-80
2022/01/07 02:27:06;;;;;;;5.12;3.90;;;;;;;-4.33;74.30;96917.89;1666589;84;21055;-80
2022/01/07 02:29:32;;;;;;;5.17;3.52;;;;;;;-4.31;74.18;96920.35;1691121;84;20988;-80
2022/01/07 02:31:57;;;;;;;4.65;4.12;;;;;;;-4.32;73.68;96914.45;1690889;84;21047;-80
2022/01/07 02:34:23;;;;;;;5.15;4.08;;;;;;;-4.35;73.61;96912.53;1689117;84;21417;-79
2022/01/07 02:36:49;;;;;;;6.40;3.75;;;;;;;-4.38;73.80;96907.17;1691790;84;20995;-79
2022/01/07 02:39:15;;;;;;;5.00;3.70;;;;;;;-4.38;74.13;96907.17;1690164;84;20943;-80
2022/01/07 02:41:41;;;;;;;6.42;3.62;;;;;;;-4.35;74.34;96905.73;1693118;84;22201;-80
2022/01/07 02:44:06;;;;;;;5.72;3.70;;;;;;;-4.35;74.09;96898.13;1689303;84;20999;-80
2022/01/07 02:46:33;;;;;;;5.60;3.75;;;;;;;-4.34;74.26;96901.03;1629868;86;20967;-80
2022/01/07 02:48:59;;;;;;;3.95;3.37;;;;;;;-4.30;74.10;96900.42;1651559;86;20996;-80
2022/01/07 02:51:25;;;;;;;5.72;3.70;;;;;;;-4.30;73.80;96901.24;1606248;86;21410;-80
2022/01/07 02:53:51;;;;;;;6.92;4.03;;;;;;;-4.28;73.48;96899.44;1690476;84;21097;-80
2022/01/07 02:56:16;;;;;;;5.10;4.47;;;;;;;-4.30;73.02;96902.52;1689271;84;21052;-80
2022/01/07 02:58:42;;;;;;;4.50;4.10;;;;;;;-4.32;73.36;96904.31;1691109;84;20979;-80
2022/01/07 03:01:08;;;;;;;4.75;3.92;;;;;;;-4.35;73.06;96907.02;1692733;84;20986;-80
2022/01/07 03:03:33;;;;;;;4.37;3.17;;;;;;;-4.33;73.13;96908.20;1690177;83;20976;-80
2022/01/07 03:05:59;;;;;;;5.25;4.70;;;;;;;-4.34;72.96;96914.17;1690684;84;20951;-80
2022/01/07 03:08:26;;;;;;;4.58;3.65;;;;;;;-4.36;72.95;96909.62;1690334;84;21431;-80
2022/01/07 03:10:52;;;;;;;4.92;3.77;;;;;;;-4.35;71.90;96908.28;1691441;84;20980;-80
2022/01/07 03:13:18;;;;;;;3.52;3.00;;;;;;;-4.33;72.30;96907.75;1691030;84;21019;-80
2022/01/07 03:15:43;;;;;;;3.20;2.90;;;;;;;-4.32;72.37;96911.10;1690257;84;21371;-80
2022/01/07 03:18:09;;;;;;;5.35;3.33;;;;;;;-4.32;72.44;96913.64;1691015;84;20996;-80
2022/01/07 03:20:38;;;;;;;4.80;3.15;;;;;;;-4.34;72.23;96911.63;1692391;84;20936;-80
2022/01/07 03:23:03;;;;;;;3.60;3.30;;;;;;;-4.34;72.41;96914.98;1691631;84;22338;-80
2022/01/07 03:25:28;;;;;;;4.53;3.00;;;;;;;-4.34;72.42;96911.19;1691211;84;20969;-80
2022/01/07 03:27:54;;;;;;;5.37;3.72;;;;;;;-4.32;72.67;96911.92;1689453;84;21069;-81
2022/01/07 03:30:20;;;;;;;3.65;2.75;;;;;;;-4.31;72.60;96907.67;1675281;85;21030;-80
2022/01/07 03:32:46;;;;;;;4.03;3.55;;;;;;;-4.33;72.49;96902.67;1678706;85;20979;-80
2022/01/07 03:35:12;;;;;;;3.02;2.80;;;;;;;-4.34;72.40;96898.50;1675789;85;20949;-81
2022/01/07 03:37:39;;;;;;;3.90;3.50;;;;;;;-4.37;72.28;96899.92;1684283;85;21034;-80
2022/01/07 03:40:05;;;;;;;3.40;2.62;;;;;;;-4.41;72.26;96893.34;1678959;85;21318;-80
2022/01/07 03:42:32;;;;;;;8.95;2.83;;;;;;;-4.41;72.20;96895.06;1676712;85;21002;-81
2022/01/07 03:44:58;;;;;;;3.70;2.60;;;;;;;-4.43;71.93;96891.34;1677405;85;20983;-81
2022/01/07 03:47:24;;;;;;;2.65;2.45;;;;;;;-4.47;71.70;96886.51;1672965;85;21446;-81
2022/01/07 03:49:50;;;;;;;2.85;2.58;;;;;;;-4.52;71.60;96885.93;1677830;85;21366;-80
2022/01/07 03:52:15;;;;;;;2.87;2.67;;;;;;;-4.56;71.59;96879.75;1678651;85;20968;-81
2022/01/07 03:54:41;;;;;;;2.52;2.37;;;;;;;-4.61;71.67;96879.14;1679418;85;21011;-80
2022/01/07 03:57:07;;;;;;;2.42;2.30;;;;;;;-4.61;71.66;96885.48;1677827;85;20944;-81
2022/01/07 03:59:32;;;;;;;2.87;2.70;;;;;;;-4.62;71.23;96890.18;1680576;85;21003;-80
2022/01/07 04:01:58;;;;;;;2.50;2.30;;;;;;;-4.58;71.23;96884.05;1682471;85;20955;-80
2022/01/07 04:04:24;;;;;;;2.98;2.70;;;;;;;-4.56;71.03;96893.70;1674714;84;20991;-80
2022/01/07 04:06:49;;;;;;;2.77;2.58;;;;;;;-4.57;70.87;96885.69;1683203;84;21387;-80
2022/01/07 04:09:15;;;;;;;2.85;2.50;;;;;;;-4.62;70.99;96885.11;1682728;85;21039;-80
2022/01/07 04:11:41;;;;;;;2.95;2.75;;;;;;;-4.63;71.45;96895.33;1679444;85;21059;-80
2022/01/07 04:14:07;;;;;;;2.77;2.60;;;;;;;-4.61;71.69;96899.87;1675577;85;21366;-81
2022/01/07 04:16:32;;;;;;;3.22;3.00;;;;;;;-4.59;71.73;96901.43;1684390;84;20955;-81
2022/01/07 04:18:58;;;;;;;3.25;3.05;;;;;;;-4.65;71.66;96904.28;1671875;85;20967;-80
2022/01/07 04:21:24;;;;;;;3.25;2.95;;;;;;;-4.70;71.58;96901.16;1681656;85;21472;-80
2022/01/07 04:23:49;;;;;;;2.80;2.60;;;;;;;-4.73;71.68;96897.94;1679332;85;20936;-80
2022/01/07 04:26:15;;;;;;;2.70;2.60;;;;;;;-4.75;71.72;96895.92;1677715;85;20932;-81
2022/01/07 04:28:41;;;;;;;3.22;2.92;;;;;;;-4.75;71.66;96892.95;1681823;85;21023;-80
2022/01/07 04:31:07;;;;;;;3.27;2.50;;;;;;;-4.73;71.70;96901.73;1679163;85;21358;-80
2022/01/07 04:33:34;;;;;;;2.65;2.45;;;;;;;-4.71;71.72;96894.91;1672805;85;21402;-80
2022/01/07 04:35:59;;;;;;;2.50;2.30;;;;;;;-4.75;71.43;96897.20;1678215;85;21019;-80
2022/01/07 04:38:26;;;;;;;2.50;2.40;;;;;;;-4.77;71.31;96890.94;1672184;85;21035;-80
2022/01/07 04:40:52;;;;;;;2.83;2.62;;;;;;;-4.74;71.71;96897.12;1679780;85;21398;-80
2022/01/07 04:43:17;;;;;;;2.30;2.20;;;;;;;-4.69;71.46;96896.91;1671977;85;21006;-80
2022/01/07 04:45:43;;;;;;;2.50;2.30;;;;;;;-4.73;71.18;96896.67;1683023;85;21007;-81
2022/01/07 04:48:09;;;;;;;2.27;2.17;;;;;;;-4.75;70.96;96901.81;1680968;85;20975;-80
2022/01/07 04:50:35;;;;;;;2.40;2.30;;;;;;;-4.72;71.21;96894.50;1673097;85;21011;-80
2022/01/07 04:53:01;;;;;;;2.40;2.30;;;;;;;-4.66;71.39;96895.04;1676916;85;21032;-80
2022/01/07 04:55:36;;;;;;;2.35;2.20;;;;;;;-4.62;70.92;96895.70;1672159;85;21504;-81
2022/01/07 04:57:56;;;;;;;2.20;2.10;;;;;;;-4.62;70.62;96894.43;1676802;85;21030;-81
2022/01/07 05:00:23;;;;;;;2.30;2.20;;;;;;;-4.61;70.39;96897.34;1679142;85;21013;-81
2022/01/07 05:02:49;;;;;;;2.20;2.10;;;;;;;-4.58;70.18;96895.91;1673939;84;21019;-80
2022/01/07 05:05:15;;;;;;;4.50;3.50;;;;;;;-4.54;69.88;96891.08;1678344;83;20967;-80
2022/01/07 05:07:40;;;;;;;2.30;2.20;;;;;;;-4.56;69.48;96900.45;1674978;85;21011;-80
2022/01/07 05:10:10;;;;;;;2.22;2.12;;;;;;;-4.62;69.47;96902.04;1676647;85;21342;-80
2022/01/07 05:12:36;;;;;;;2.40;2.30;;;;;;;-4.61;69.25;96903.23;1671841;85;20987;-80
2022/01/07 05:15:04;;;;;;;2.20;2.10;;;;;;;-4.61;68.49;96901.95;1677459;85;21370;-80
2022/01/07 05:17:30;;;;;;;2.30;2.20;;;;;;;-4.59;68.30;96898.08;1681686;84;20975;-80
2022/01/07 05:19:57;;;;;;;2.30;2.20;;;;;;;-4.65;68.57;96897.94;1679673;85;21054;-81
2022/01/07 05:22:23;;;;;;;2.50;2.40;;;;;;;-4.70;67.72;96891.47;1678129;85;20974;-80
2022/01/07 05:24:48;;;;;;;3.22;2.92;;;;;;;-4.68;67.79;96896.84;1683729;85;20940;-80
2022/01/07 05:27:14;;;;;;;2.67;2.58;;;;;;;-4.67;68.32;96904.81;1683484;85;21351;-80
2022/01/07 05:29:40;;;;;;;2.45;2.27;;;;;;;-4.71;68.01;96899.53;1674674;85;21062;-80
2022/01/07 05:32:06;;;;;;;2.42;2.33;;;;;;;-4.71;67.50;96893.64;1682837;85;21015;-80
2022/01/07 05:34:32;;;;;;;2.35;2.25;;;;;;;-4.72;67.39;96900.42;1674441;85;21019;-80
2022/01/07 05:36:57;;;;;;;2.80;2.60;;;;;;;-4.72;67.69;96897.04;1678580;85;21062;-80
2022/01/07 05:39:24;;;;;;;2.58;2.37;;;;;;;-4.69;67.78;96901.53;1685500;85;21441;-80
2022/01/07 05:41:49;;;;;;;2.60;2.50;;;;;;;-4.65;67.53;96902.20;1672545;85;21054;-81
2022/01/07 05:44:15;;;;;;;2.60;2.40;;;;;;;-4.57;68.39;96896.28;1676565;85;20991;-80
2022/01/07 05:46:41;;;;;;;2.50;2.30;;;;;;;-4.51;67.92;96888.38;1674869;84;21356;-80
2022/01/07 05:49:07;;;;;;;4.17;2.80;;;;;;;-4.50;67.85;96886.67;1660363;85;21019;-80
2022/01/07 05:51:32;;;;;;;2.40;2.30;;;;;;;-4.56;67.50;96880.17;1675697;85;21003;-80
2022/01/07 05:53:59;;;;;;;2.30;2.20;;;;;;;-4.58;67.40;96876.89;1678752;85;21028;-80
2022/01/07 05:56:24;;;;;;;2.52;2.33;;;;;;;-4.59;67.26;96875.25;1675277;85;21350;-80
2022/01/07 05:58:50;;;;;;;2.50;2.30;;;;;;;-4.60;67.15;96877.42;1672051;85;21125;-80
2022/01/07 06:01:16;;;;;;;2.50;2.30;;;;;;;-4.59;67.35;96873.53;1678366;85;21020;-81
2022/01/07 06:03:41;;;;;;;2.72;2.50;;;;;;;-4.59;67.18;96872.72;1678944;85;20936;-80
2022/01/07 06:06:07;;;;;;;2.30;2.20;;;;;;;-4.59;67.03;96854.97;1677169;85;20963;-80
2022/01/07 06:08:33;;;;;;;2.20;2.10;;;;;;;-4.62;67.08;96857.21;1673482;85;21058;-80
2022/01/07 06:10:59;;;;;;;2.30;2.20;;;;;;;-4.63;66.71;96853.48;1678468;85;20920;-80
2022/01/07 06:13:24;;;;;;;2.33;2.15;;;;;;;-4.63;66.01;96854.76;1679865;85;20956;-81
2022/01/07 06:15:50;;;;;;;2.40;2.30;;;;;;;-4.62;66.56;96853.41;1682607;84;20975;-80
2022/01/07 06:18:17;;;;;;;2.17;2.08;;;;;;;-4.59;66.04;96850.71;1682340;85;21422;-80
2022/01/07 06:20:43;;;;;;;2.40;2.20;;;;;;;-4.55;65.58;96843.34;1674635;85;20996;-80
2022/01/07 06:23:09;;;;;;;2.33;2.22;;;;;;;-4.51;64.93;96838.11;1682772;85;20964;-80
2022/01/07 06:25:34;;;;;;;2.92;2.60;;;;;;;-4.47;64.99;96844.20;1675602;85;21445;-80
2022/01/07 06:28:00;;;;;;;2.40;2.30;;;;;;;-4.37;64.88;96840.77;1675527;85;21034;-80
2022/01/07 06:30:26;;;;;;;2.40;2.30;;;;;;;-4.34;65.20;96843.95;1690462;84;21023;-80
2022/01/07 06:32:52;;;;;;;2.75;2.55;;;;;;;-4.23;63.84;96845.95;1692913;84;21326;-81
2022/01/07 06:35:18;;;;;;;2.90;2.62;;;;;;;-4.14;63.36;96856.87;1690957;84;21394;-80
2022/01/07 06:37:43;;;;;;;2.30;2.10;;;;;;;-4.10;63.48;96860.87;1690947;84;20987;-80
2022/01/07 06:40:10;;;;;;;2.12;2.02;;;;;;;-4.06;64.16;96856.48;1693635;84;20995;-80
2022/01/07 06:42:35;;;;;;;4.65;4.17;;;;;;;-4.02;63.83;96859.22;1689183;84;21020;-80
2022/01/07 06:45:01;;;;;;;2.40;2.30;;;;;;;-3.99;63.33;96852.70;1690695;84;21079;-80
2022/01/07 06:47:27;;;;;;;2.35;2.15;;;;;;;-3.98;64.06;96856.88;1692273;84;20979;-80
2022/01/07 06:49:54;;;;;;;2.52;2.40;;;;;;;-3.95;63.55;96850.38;1691765;84;21048;-80
2022/01/07 06:52:20;;;;;;;2.35;2.25;;;;;;;-3.90;62.64;96857.31;1687052;84;21417;-80
2022/01/07 06:54:46;;;;;;;2.30;2.20;;;;;;;-3.86;62.50;96854.16;1693608;84;20994;-80
2022/01/07 06:57:12;;;;;;;2.50;2.30;;;;;;;-3.83;63.21;96850.17;1690823;84;20977;-80
2022/01/07 06:59:37;;;;;;;2.10;2.00;;;;;;;-3.81;63.42;96849.64;1689040;84;21055;-81
2022/01/07 07:02:04;;;;;;;2.15;2.05;;;;;;;-3.78;63.39;96856.63;1690833;84;20963;-81
2022/01/07 07:04:29;;;;;;;2.15;2.05;;;;;;;-3.75;61.17;96859.00;1690286;83;21398;-80
2022/01/07 07:06:55;;;;;;;2.00;1.90;;;;;;;-3.68;61.97;96862.88;1690511;84;21007;-81
2022/01/07 07:09:21;;;;;;;2.12;2.00;;;;;;;-3.67;60.69;96856.89;1689759;84;21325;-80
2022/01/07 07:11:46;;;;;;;2.15;2.05;;;;;;;-3.61;62.05;96855.73;1691259;84;21295;-81
2022/01/07 07:14:12;;;;;;;1.87;1.80;;;;;;;-3.59;62.26;96851.83;1690646;84;20946;-81
2022/01/07 07:16:38;;;;;;;2.05;1.95;;;;;;;-3.59;62.03;96856.91;1666031;84;20975;-81
2022/01/07 07:19:04;;;;;;;1.80;1.80;;;;;;;-3.57;61.23;96861.48;1663971;84;20952;-80
2022/01/07 07:21:30;;;;;;;2.08;1.90;;;;;;;-3.53;60.98;96866.76;1690972;84;20956;-81
2022/01/07 07:23:55;;;;;;;1.92;1.80;;;;;;;-3.46;60.20;96858.70;1692193;84;20987;-81
2022/01/07 07:26:21;;;;;;;1.95;1.85;;;;;;;-3.41;59.31;96865.64;1694633;84;20987;-80
2022/01/07 07:28:47;;;;;;;2.10;2.00;;;;;;;-3.36;60.38;96866.20;1692003;84;20999;-80
2022/01/07 07:31:17;;;;;;;2.10;2.00;;;;;;;-3.33;60.71;96863.94;1688855;84;21469;-80
2022/01/07 07:38:55;;;;;;;2.00;1.90;;;;;;;-3.12;59.06;96871.62;1689120;84;21404;-80
2022/01/07 07:41:20;;;;;;;2.40;2.20;;;;;;;-3.11;58.56;96866.91;1685146;84;21037;-80
2022/01/07 07:43:47;;;;;;;3.00;2.80;;;;;;;-3.10;57.46;96863.46;1686760;84;20978;-80
2022/01/07 07:46:14;;;;;;;2.00;1.90;;;;;;;-3.00;56.15;96855.33;1687801;84;20979;-81
2022/01/07 07:48:39;;;;;;;2.25;2.05;;;;;;;-2.94;57.55;96850.70;1685407;84;21447;-81
2022/01/07 07:51:05;;;;;;;2.70;2.50;;;;;;;-2.90;56.89;96852.19;1688524;84;20986;-80
2022/01/07 07:53:31;;;;;;;2.00;1.90;;;;;;;-2.84;58.61;96853.55;1688781;84;21005;-80
2022/01/07 07:55:57;;;;;;;1.95;1.85;;;;;;;-2.86;57.60;96849.83;1690758;84;21065;-80
2022/01/07 07:58:24;;;;;;;2.25;2.08;;;;;;;-2.88;58.38;96853.37;1690203;84;21348;-80
2022/01/07 08:00:50;;;;;;;3.33;2.52;;;;;;;-2.90;58.04;96846.28;1687247;84;21333;-80
2022/01/07 08:03:16;;;;;;;3.75;3.42;;;;;;;-2.89;55.80;96856.82;1687349;84;21289;-80
2022/01/07 08:05:41;;;;;;;2.95;2.50;;;;;;;-2.86;56.00;96851.55;1686732;84;21022;-80
2022/01/07 08:08:07;;;;;;;2.52;2.33;;;;;;;-2.83;54.32;96852.64;1690080;84;21043;-80
2022/01/07 08:10:33;;;;;;;2.65;2.20;;;;;;;-2.78;54.90;96855.73;1685755;84;21368;-81
2022/01/07 08:18:14;;;;;;;2.92;2.47;;;;;;;-2.61;54.10;96862.39;1686415;84;21015;-80
2022/01/07 08:20:40;;;;;;;4.30;2.58;;;;;;;-2.57;52.12;96857.51;1687219;84;21076;-80
2022/01/07 08:23:06;;;;;;;2.60;2.40;;;;;;;-2.54;53.10;96861.14;1687724;84;20993;-81
2022/01/07 08:25:32;;;;;;;2.85;2.55;;;;;;;-2.49;52.31;96867.59;1689221;84;20956;-80
2022/01/07 08:28:03;;;;;;;2.27;2.08;;;;;;;-2.47;51.44;96873.41;1687526;84;21406;-81
2022/01/07 08:30:36;;;;;;;2.62;2.15;;;;;;;-2.41;52.67;96867.16;1680948;84;21027;-80
2022/01/07 08:35:40;;;;;;;2.30;2.20;;;;;;;-2.36;53.31;96861.78;1676440;85;21051;-83
2022/01/07 08:38:06;;;;;;;3.87;3.58;;;;;;;-2.36;53.34;96860.06;1675112;85;20968;-83
2022/01/07 08:40:33;;;;;;;4.00;3.52;;;;;;;-2.34;53.23;96854.88;1656198;85;21381;-83
2022/01/07 08:42:59;;;;;;;4.47;3.83;;;;;;;-2.34;54.92;96866.33;1679575;85;20945;-83
2022/01/07 08:45:25;;;;;;;3.37;2.98;;;;;;;-2.34;52.63;96863.33;1677567;85;21079;-83
2022/01/07 08:47:51;;;;;;;2.60;2.30;;;;;;;-2.33;52.13;96854.78;1679087;85;21014;-83
2022/01/07 08:50:17;;;;;;;4.40;2.60;;;;;;;-2.28;52.77;96855.77;1677360;85;21015;-83
2022/01/07 08:52:43;;;;;;;2.45;2.25;;;;;;;-2.27;52.64;96859.53;1678541;85;21325;-83
2022/01/07 08:55:09;;;;;;;2.17;1.95;;;;;;;-2.25;51.21;96861.98;1677444;85;20999;-80
2022/01/07 08:57:35;;;;;;;2.10;1.95;;;;;;;-2.23;49.02;96852.06;1657732;85;21063;-80
2022/01/07 09:00:01;;;;;;;3.67;2.27;;;;;;;-2.16;50.32;96863.95;1678640;85;21390;-80
2022/01/07 09:02:26;;;;;;;2.77;2.20;;;;;;;-2.11;50.84;96864.52;1658355;84;20940;-80
2022/01/07 09:04:52;;;;;;;2.30;2.10;;;;;;;-2.08;51.42;96866.06;1686483;84;21305;-81
2022/01/07 09:07:18;;;;;;;5.17;3.92;;;;;;;-2.06;51.74;96858.69;1671803;85;21027;-80
2022/01/07 09:09:44;;;;;;;8.15;5.87;;;;;;;-2.06;51.92;96856.59;1680587;85;21390;-80
2022/01/07 09:12:10;;;;;;;2.15;1.95;;;;;;;-2.06;51.93;96847.23;1678347;85;21370;-80
2022/01/07 09:14:36;;;;;;;1.70;1.60;;;;;;;-2.06;50.88;96848.50;1680867;85;20991;-80
2022/01/07 09:17:01;;;;;;;2.10;1.90;;;;;;;-2.01;50.53;96838.03;1680019;84;21023;-81
2022/01/07 09:19:28;;;;;;;2.00;1.90;;;;;;;-1.98;51.88;96836.11;1673415;85;20975;-81
2022/01/07 09:21:56;;;;;;;2.75;1.80;;;;;;;-1.93;50.52;96840.95;1676424;85;21099;-80
2022/01/07 09:24:21;;;;;;;1.70;1.60;;;;;;;-1.84;51.39;96843.73;1675226;85;21051;-81
2022/01/07 09:26:48;;;;;;;1.60;1.50;;;;;;;-1.81;49.59;96833.34;1679732;85;21071;-80
2022/01/07 09:29:14;;;;;;;2.00;1.90;;;;;;;-1.71;49.21;96834.88;1680130;84;20995;-80
2022/01/07 09:31:40;;;;;;;2.15;1.90;;;;;;;-1.64;49.16;96838.66;1692990;84;20998;-80
2022/01/07 09:34:06;;;;;;;3.80;3.00;;;;;;;-1.58;50.31;96831.94;1692718;84;21300;-80
2022/01/07 18:55:34;;;;;;;61.13;20.77;;;;;;;-1.90;48.33;96516.02;1682160;84;21072;-83
2022/01/07 18:59:06;;;;;;;35.08;10.03;;;;;;;-1.89;48.14;96515.11;1685197;84;21055;-83
2022/01/07 19:01:32;;;;;;;63.50;16.35;;;;;;;-1.88;48.10;96511.19;1685421;84;21031;-83
2022/01/07 19:03:58;;;;;;;32.38;9.93;;;;;;;-1.85;47.44;96516.06;1685616;83;21071;-83
2022/01/07 19:06:25;;;;;;;11.75;5.92;;;;;;;-1.82;47.16;96511.22;1687269;83;21006;-83
2022/01/07 19:08:50;;;;;;;37.10;11.40;;;;;;;-1.79;46.74;96511.04;1700626;83;21527;-83
2022/01/07 19:11:17;;;;;;;10.40;4.60;;;;;;;-1.76;46.02;96502.37;1708185;83;21035;-83
2022/01/07 19:13:43;;;;;;;19.95;7.78;;;;;;;-1.69;46.33;96491.66;1721948;83;21418;-83
2022/01/07 19:16:10;;;;;;;4.40;3.50;;;;;;;-1.65;45.03;96501.17;1731830;82;21155;-83
2022/01/07 19:18:37;;;;;;;12.63;7.45;;;;;;;-1.60;44.33;96494.05;1664550;84;21003;-82
2022/01/07 19:21:04;;;;;;;4.15;3.02;;;;;;;-1.60;43.56;96470.66;1692703;83;21047;-83
2022/01/07 19:23:33;;;;;;;7.70;4.30;;;;;;;-1.59;43.88;96472.75;1628715;87;21497;-83
2022/01/07 19:25:59;;;;;;;4.10;2.60;;;;;;;-1.58;43.03;96485.84;1627811;87;21083;-83
2022/01/07 19:28:25;;;;;;;3.60;3.10;;;;;;;-1.53;42.51;96462.94;1638115;88;20999;-83
2022/01/07 19:30:52;;;;;;;5.45;3.42;;;;;;;-1.51;42.43;96470.47;1661006;86;21016;-83
2022/01/07 19:33:18;;;;;;;4.05;2.72;;;;;;;-1.52;42.68;96465.84;1689337;83;21055;-83
2022/01/07 19:35:44;;;;;;;6.67;4.00;;;;;;;-1.49;43.60;96455.89;1679483;85;21415;-83
2022/01/07 19:38:10;;;;;;;7.70;3.75;;;;;;;-1.52;41.20;96449.73;1660173;86;21071;-83
2022/01/07 19:40:36;;;;;;;4.70;3.05;;;;;;;-1.49;42.69;96450.80;1660588;86;21481;-83
2022/01/07 19:43:02;;;;;;;8.58;4.42;;;;;;;-1.46;41.57;96454.42;1670183;84;20963;-83
2022/01/07 19:45:28;;;;;;;5.10;3.02;;;;;;;-1.43;43.00;96444.02;1678083;85;20982;-83
2022/01/07 19:47:54;;;;;;;3.62;2.80;;;;;;;-1.44;41.75;96437.29;1664518;84;21016;-83
2022/01/07 19:50:20;;;;;;;5.62;3.22;;;;;;;-1.43;41.36;96454.21;1688359;85;21003;-83
2022/01/07 19:52:45;;;;;;;8.80;4.12;;;;;;;-1.39;41.84;96454.80;1688605;85;20964;-83
2022/01/07 19:55:12;;;;;;;5.72;3.25;;;;;;;-1.38;41.72;96464.89;1668865;83;21000;-83
2022/01/07 19:57:38;;;;;;;7.40;4.62;;;;;;;-1.39;41.71;96464.54;1669580;85;21066;-83
2022/01/07 20:00:08;;;;;;;15.90;10.23;;;;;;;-1.42;43.24;96471.13;1669510;86;21011;-83
2022/01/07 20:02:34;;;;;;;10.95;5.72;;;;;;;-1.54;44.94;96483.43;1668526;85;20968;-83
2022/01/07 20:05:00;;;;;;;16.67;9.08;;;;;;;-1.68;45.49;96472.09;1672840;84;21469;-83
2022/01/07 20:07:25;;;;;;;11.12;6.30;;;;;;;-1.83;46.89;96483.66;1683782;85;21013;-83
2022/01/07 20:09:51;;;;;;;12.75;6.67;;;;;;;-1.91;47.88;96477.47;1683864;85;21019;-83
2022/01/07 20:12:17;;;;;;;13.32;9.08;;;;;;;-1.99;47.34;96476.69;1683935;85;21043;-83
2022/01/07 20:14:42;;;;;;;14.93;8.98;;;;;;;-2.06;47.91;96471.66;1683661;85;20980;-83
2022/01/07 20:17:08;;;;;;;13.08;8.13;;;;;;;-2.07;48.06;96471.77;1660123;85;22045;-83
2022/01/07 20:19:34;;;;;;;14.55;8.10;;;;;;;-2.11;47.91;96473.71;1709151;83;21000;-83
2022/01/07 20:22:00;;;;;;;36.45;19.30;;;;;;;-2.11;48.58;96466.07;1702358;84;21051;-83
2022/01/07 20:24:27;;;;;;;23.80;14.73;;;;;;;-2.12;49.33;96472.05;1707339;84;21041;-83
2022/01/07 20:26:52;;;;;;;8.83;5.65;;;;;;;-2.22;48.66;96465.95;1721940;83;21030;-83
2022/01/07 20:29:18;;;;;;;9.73;5.20;;;;;;;-2.27;50.18;96461.64;1725559;83;21432;-83
2022/01/07 20:31:44;;;;;;;13.03;5.83;;;;;;;-2.34;50.72;96466.75;1727504;83;21016;-83
2022/01/07 20:34:09;;;;;;;11.40;5.60;;;;;;;-2.39;51.38;96467.06;1705567;82;21023;-83
2022/01/07 20:36:38;;;;;;;17.05;7.20;;;;;;;-2.44;50.61;96470.38;1714081;83;21367;-83
2022/01/07 20:39:03;;;;;;;17.57;9.93;;;;;;;-2.48;51.43;96474.83;1725170;83;21052;-83
2022/01/07 20:41:28;;;;;;;7.53;4.80;;;;;;;-2.60;51.28;96471.83;1725638;83;21410;-82
2022/01/07 20:43:54;;;;;;;52.23;16.10;;;;;;;-2.69;50.29;96475.41;1726544;83;21062;-83
2022/01/07 20:46:20;;;;;;;16.70;7.78;;;;;;;-2.72;50.89;96471.33;1734672;82;20976;-83
2022/01/07 20:48:45;;;;;;;18.50;8.28;;;;;;;-2.77;49.87;96475.88;1725499;83;21003;-83
2022/01/07 20:51:11;;;;;;;58.28;23.30;;;;;;;-2.77;51.02;96483.08;1714013;83;21493;-83
2022/01/07 20:53:39;;;;;;;16.52;9.03;;;;;;;-2.81;49.29;96487.98;1707021;84;21115;-83
2022/01/07 20:56:05;;;;;;;111.88;27.37;;;;;;;-2.78;50.99;96486.50;1706749;84;21099;-83
2022/01/07 20:58:31;;;;;;;90.47;22.90;;;;;;;-2.76;50.47;96485.16;1707015;84;21355;-83